Time;durP1;ratioP1;P1;durP2;ratioP2;P2;SDS_P1;SDS_P2;PMS_P1;PMS_P2;Temp;Humidity;BMP_temperature;BMP_pressure;BME280_temperature;BME280_humidity;BME280_pressure;Samples;Min_cycle;Max_cycle;Signal;HPM_P1;HPM_P2
2021/06/19 00:01:43;;;;;;;9.52;6.22;;;24.00;99.90;;;;;;5131681;27;20055;-72
2021/06/19 00:04:09;;;;;;;18.38;7.20;;;23.90;99.90;;;;;;5132360;27;20088;-72
2021/06/19 00:06:38;;;;;;;11.93;5.90;;;23.70;99.90;;;;;;5132208;27;20385;-73
2021/06/19 00:09:04;;;;;;;14.65;5.13;;;23.60;99.90;;;;;;5132487;27;20068;-73
2021/06/19 00:11:29;;;;;;;10.32;4.55;;;23.60;99.90;;;;;;5131759;27;20556;-72
2021/06/19 00:13:55;;;;;;;14.43;4.00;;;23.40;99.90;;;;;;5132417;27;20031;-73
2021/06/19 00:16:22;;;;;;;22.15;3.30;;;23.00;99.90;;;;;;5132318;28;20019;-72
2021/06/19 00:18:48;;;;;;;18.27;3.28;;;22.80;99.90;;;;;;5132506;28;20077;-72
2021/06/19 00:21:14;;;;;;;15.18;3.05;;;22.50;99.90;;;;;;5131424;27;20027;-74
2021/06/19 00:23:39;;;;;;;10.60;3.28;;;22.40;99.90;;;;;;5133265;28;20027;-73
2021/06/19 00:26:05;;;;;;;16.35;3.53;;;22.20;99.90;;;;;;5132783;28;20034;-73
2021/06/19 00:28:31;;;;;;;9.80;3.35;;;22.00;99.90;;;;;;5132910;28;20020;-73
2021/06/19 00:30:56;;;;;;;15.20;4.78;;;22.00;99.90;;;;;;5130527;28;20043;-73
2021/06/19 00:33:22;;;;;;;15.45;4.57;;;22.00;99.90;;;;;;5132607;28;20023;-73
2021/06/19 00:35:48;;;;;;;13.68;4.45;;;22.00;99.90;;;;;;5132284;27;20027;-72
2021/06/19 00:38:14;;;;;;;15.57;4.82;;;22.00;99.90;;;;;;5132550;28;20034;-73
2021/06/19 00:40:40;;;;;;;7.00;4.43;;;22.00;99.90;;;;;;5130286;28;20358;-72
2021/06/19 00:43:05;;;;;;;10.43;4.75;;;22.10;99.90;;;;;;5109916;28;20026;-72
2021/06/19 00:45:34;;;;;;;10.10;3.92;;;22.10;99.90;;;;;;5111100;28;20032;-73
2021/06/19 00:47:59;;;;;;;12.90;4.55;;;22.20;99.90;;;;;;5111832;28;20016;-73
2021/06/19 00:50:26;;;;;;;14.30;4.97;;;22.10;99.90;;;;;;5109233;28;20023;-73
2021/06/19 00:52:52;;;;;;;13.23;4.95;;;21.90;99.90;;;;;;5111617;28;20024;-72
2021/06/19 00:55:19;;;;;;;12.63;5.30;;;21.80;99.90;;;;;;5109991;28;20020;-73
2021/06/19 00:57:46;;;;;;;12.90;5.07;;;21.80;99.90;;;;;;5111408;28;20024;-73
2021/06/19 01:00:12;;;;;;;16.10;5.55;;;21.80;99.90;;;;;;5110910;28;20081;-72
2021/06/19 01:02:39;;;;;;;20.33;4.82;;;21.70;99.90;;;;;;5111256;28;20024;-72
2021/06/19 01:05:08;;;;;;;14.00;5.55;;;21.70;99.90;;;;;;5109714;28;20074;-72
2021/06/19 01:07:33;;;;;;;19.80;5.65;;;21.60;99.90;;;;;;5111275;28;20046;-73
2021/06/19 01:09:59;;;;;;;15.60;6.00;;;21.60;99.90;;;;;;5109462;28;20024;-72
2021/06/19 01:12:25;;;;;;;12.45;5.65;;;21.30;99.90;;;;;;5127463;28;20020;-73
2021/06/19 01:14:52;;;;;;;15.38;6.05;;;21.30;99.90;;;;;;5131906;27;20136;-73
2021/06/19 01:17:19;;;;;;;19.83;5.93;;;21.20;99.90;;;;;;5130562;28;20644;-72
2021/06/19 01:20:05;;;;;;;14.35;6.07;;;21.20;99.90;;;;;;5131328;27;20523;-74
2021/06/19 01:22:32;;;;;;;16.48;5.75;;;21.20;99.90;;;;;;5125180;27;20035;-73
2021/06/19 01:25:04;;;;;;;19.58;6.53;;;21.10;99.90;;;;;;5135820;27;20027;-72
2021/06/19 01:27:30;;;;;;;21.40;6.32;;;21.00;99.90;;;;;;5135898;27;20409;-72
2021/06/19 01:29:57;;;;;;;14.07;6.00;;;21.00;99.90;;;;;;5137361;27;20023;-72
2021/06/19 01:32:27;;;;;;;19.58;7.50;;;21.20;99.90;;;;;;5136738;27;20045;-73
2021/06/19 01:34:52;;;;;;;20.30;6.82;;;21.30;99.90;;;;;;5135954;27;20412;-73
2021/06/19 01:37:18;;;;;;;20.17;6.85;;;21.30;99.90;;;;;;5137650;27;20062;-72
2021/06/19 01:39:44;;;;;;;20.70;7.65;;;21.30;99.90;;;;;;5136063;27;20026;-72
2021/06/19 01:42:10;;;;;;;17.45;6.28;;;21.40;99.90;;;;;;5136728;27;20093;-72
2021/06/19 01:44:36;;;;;;;14.32;5.78;;;21.20;99.90;;;;;;5135817;27;20038;-72
2021/06/19 01:47:01;;;;;;;17.55;6.38;;;21.20;99.90;;;;;;5136579;27;20031;-72
2021/06/19 01:49:37;;;;;;;16.02;6.30;;;21.20;99.90;;;;;;5134940;27;20357;-73
2021/06/19 01:52:04;;;;;;;14.55;7.18;;;21.20;99.90;;;;;;5134755;27;20027;-74
2021/06/19 01:54:40;;;;;;;15.07;6.07;;;21.20;99.90;;;;;;5136261;27;20031;-73
2021/06/19 01:57:07;;;;;;;13.02;5.57;;;21.10;99.90;;;;;;5135602;27;20493;-72
2021/06/19 01:59:36;;;;;;;20.02;6.90;;;20.90;99.90;;;;;;5134334;27;20034;-72
2021/06/19 02:02:03;;;;;;;18.65;7.05;;;20.90;99.90;;;;;;5135417;27;20027;-73
2021/06/19 02:04:31;;;;;;;16.80;6.45;;;20.90;99.90;;;;;;5133500;27;20081;-73
2021/06/19 02:06:56;;;;;;;13.90;6.45;;;20.80;99.90;;;;;;5135832;27;20034;-73
2021/06/19 02:09:22;;;;;;;19.38;6.45;;;20.60;99.90;;;;;;5134414;27;20465;-73
2021/06/19 02:11:48;;;;;;;20.63;6.43;;;20.60;99.90;;;;;;5135355;27;20098;-73
2021/06/19 02:14:15;;;;;;;23.88;7.78;;;20.60;99.90;;;;;;5134824;27;20027;-72
2021/06/19 02:16:42;;;;;;;16.42;7.30;;;20.60;99.90;;;;;;5134798;27;20484;-73
2021/06/19 02:19:08;;;;;;;27.92;8.13;;;20.50;99.90;;;;;;5133278;27;20506;-73
2021/06/19 02:21:33;;;;;;;20.30;7.68;;;20.30;99.90;;;;;;5132357;27;20023;-72
2021/06/19 02:23:59;;;;;;;17.10;6.35;;;20.20;99.90;;;;;;5134472;27;20031;-73
2021/06/19 02:26:25;;;;;;;15.98;7.18;;;20.10;99.90;;;;;;5134323;27;20091;-73
2021/06/19 02:28:50;;;;;;;17.73;6.95;;;20.10;99.90;;;;;;5133199;27;20042;-72
2021/06/19 02:31:16;;;;;;;16.95;7.38;;;20.10;99.90;;;;;;5134738;27;20030;-73
2021/06/19 02:33:43;;;;;;;14.05;7.38;;;20.20;99.90;;;;;;5133255;27;20024;-73
2021/06/19 02:36:09;;;;;;;13.80;6.25;;;20.10;99.90;;;;;;5134231;27;20021;-73
2021/06/19 02:38:35;;;;;;;17.65;7.15;;;20.10;99.90;;;;;;5134494;27;20477;-73
2021/06/19 02:41:01;;;;;;;15.65;5.85;;;20.10;99.90;;;;;;5132522;27;20023;-72
2021/06/19 02:43:27;;;;;;;13.27;5.90;;;20.00;99.90;;;;;;5134117;27;20027;-73
2021/06/19 02:45:52;;;;;;;11.85;5.97;;;19.80;99.90;;;;;;5134023;27;20035;-74
2021/06/19 02:48:18;;;;;;;20.92;6.57;;;19.90;99.90;;;;;;5134162;27;20499;-73
2021/06/19 02:50:44;;;;;;;11.43;5.80;;;19.80;99.90;;;;;;5133439;27;20094;-73
2021/06/19 02:53:12;;;;;;;15.13;5.70;;;19.90;99.90;;;;;;5134300;27;20025;-72
2021/06/19 02:55:39;;;;;;;13.60;5.22;;;19.90;99.90;;;;;;5133197;27;20019;-73
2021/06/19 02:58:08;;;;;;;18.35;6.07;;;19.90;99.90;;;;;;5135372;27;20379;-72
2021/06/19 03:00:34;;;;;;;13.20;5.63;;;19.90;99.90;;;;;;5145302;27;20011;-73
2021/06/19 03:03:01;;;;;;;18.30;5.22;;;19.90;99.90;;;;;;5157917;27;20083;-73
2021/06/19 03:05:28;;;;;;;13.77;6.25;;;19.80;99.90;;;;;;5135654;27;20455;-73
2021/06/19 03:07:55;;;;;;;14.43;5.78;;;19.90;99.90;;;;;;5115471;27;20114;-73
2021/06/19 03:10:24;;;;;;;15.90;5.70;;;19.80;99.90;;;;;;5114199;27;20019;-73
2021/06/19 03:12:50;;;;;;;12.48;5.55;;;19.80;99.90;;;;;;5132032;27;20106;-73
2021/06/19 03:15:16;;;;;;;11.27;5.03;;;19.80;99.90;;;;;;5133694;27;20442;-73
2021/06/19 03:17:42;;;;;;;20.48;4.93;;;19.80;99.90;;;;;;5133362;27;20489;-73
2021/06/19 03:20:11;;;;;;;15.32;5.22;;;19.80;99.90;;;;;;5132670;27;20124;-73
2021/06/19 03:22:50;;;;;;;12.93;4.88;;;19.70;99.90;;;;;;5132077;27;20031;-73
2021/06/19 03:25:40;;;;;;;16.77;5.53;;;19.70;99.90;;;;;;5133260;27;20067;-72
2021/06/19 03:28:06;;;;;;;17.77;5.60;;;19.60;99.90;;;;;;5131546;27;20019;-73
2021/06/19 03:30:34;;;;;;;18.20;6.00;;;19.60;99.90;;;;;;5132431;27;20119;-73
2021/06/19 03:33:00;;;;;;;19.58;6.05;;;19.70;99.90;;;;;;5133007;27;20413;-74
2021/06/19 03:35:26;;;;;;;18.33;5.90;;;19.80;99.90;;;;;;5133005;27;20038;-72
2021/06/19 03:37:53;;;;;;;10.13;5.30;;;19.70;99.90;;;;;;5131464;27;20038;-72
2021/06/19 03:40:19;;;;;;;9.90;5.13;;;19.80;99.90;;;;;;5132578;27;20022;-73
2021/06/19 03:42:46;;;;;;;9.88;5.18;;;19.80;99.90;;;;;;5131210;27;20481;-73
2021/06/19 03:45:13;;;;;;;14.38;5.60;;;19.90;99.90;;;;;;5130006;27;20042;-73
2021/06/19 03:47:40;;;;;;;13.18;5.13;;;19.90;99.90;;;;;;5132673;27;20531;-73
2021/06/19 03:50:08;;;;;;;13.45;5.60;;;19.90;99.90;;;;;;5130821;27;20023;-74
2021/06/19 03:52:33;;;;;;;13.90;5.40;;;19.80;99.90;;;;;;5132427;27;20025;-73
2021/06/19 03:54:59;;;;;;;15.45;5.60;;;19.80;99.90;;;;;;5132484;27;20019;-72
2021/06/19 03:57:27;;;;;;;16.27;6.10;;;19.70;99.90;;;;;;5132632;27;20027;-73
2021/06/19 03:59:53;;;;;;;13.35;6.00;;;19.70;99.90;;;;;;5131959;27;20096;-74
2021/06/19 04:02:20;;;;;;;12.55;5.00;;;19.60;99.90;;;;;;5132204;27;20094;-74
2021/06/19 04:04:46;;;;;;;15.20;5.85;;;19.50;99.90;;;;;;5132521;27;20054;-73
2021/06/19 04:07:12;;;;;;;12.35;5.70;;;19.60;99.90;;;;;;5132437;27;20054;-74
2021/06/19 04:09:38;;;;;;;14.63;6.35;;;19.70;99.90;;;;;;5132034;27;20505;-74
2021/06/19 04:12:04;;;;;;;11.90;5.97;;;19.80;99.90;;;;;;5132820;27;20113;-74
2021/06/19 04:14:30;;;;;;;16.33;6.35;;;19.90;99.90;;;;;;5132564;27;20038;-74
2021/06/19 04:16:56;;;;;;;18.80;5.57;;;20.10;99.90;;;;;;5132203;27;20505;-74
2021/06/19 04:19:21;;;;;;;18.33;6.53;;;20.10;99.90;;;;;;5132154;28;20508;-74
2021/06/19 04:21:47;;;;;;;13.20;6.25;;;19.90;99.90;;;;;;5132403;28;20033;-73
2021/06/19 04:24:13;;;;;;;13.25;5.65;;;19.90;99.90;;;;;;5133600;28;20024;-74
2021/06/19 04:26:39;;;;;;;11.48;5.53;;;19.90;99.90;;;;;;5133226;28;20118;-73
2021/06/19 04:29:04;;;;;;;13.73;6.55;;;19.80;99.90;;;;;;5133248;27;20492;-74
2021/06/19 04:31:31;;;;;;;15.23;6.32;;;19.90;99.90;;;;;;5131294;28;20020;-73
2021/06/19 04:33:58;;;;;;;9.77;5.65;;;19.80;99.90;;;;;;5132008;27;20108;-73
2021/06/19 04:36:25;;;;;;;14.75;6.35;;;19.80;99.90;;;;;;5113719;28;20027;-73
2021/06/19 04:38:50;;;;;;;12.63;5.72;;;19.90;99.90;;;;;;5132412;28;20015;-74
2021/06/19 04:46:16;;;;;;;18.08;6.60;;;20.00;99.90;;;;;;5132114;28;20023;-73
2021/06/19 04:48:42;;;;;;;15.85;6.40;;;20.00;99.90;;;;;;5132310;28;20350;-72
2021/06/19 04:51:07;;;;;;;13.10;6.47;;;20.30;99.90;;;;;;5131909;28;20085;-76
2021/06/19 04:53:33;;;;;;;14.23;6.05;;;20.50;99.90;;;;;;5132273;28;20027;-74
2021/06/19 04:56:03;;;;;;;15.75;6.75;;;20.50;99.90;;;;;;5132790;27;20020;-74
2021/06/19 04:58:28;;;;;;;15.25;6.38;;;20.60;99.90;;;;;;5135618;27;20035;-74
2021/06/19 05:00:54;;;;;;;15.13;6.18;;;20.70;99.90;;;;;;5135535;27;20427;-73
2021/06/19 05:03:22;;;;;;;13.85;6.28;;;20.60;99.90;;;;;;5136693;27;20024;-74
2021/06/19 05:05:51;;;;;;;16.13;6.28;;;20.60;99.90;;;;;;5157031;27;20034;-74
2021/06/19 05:08:17;;;;;;;10.35;6.40;;;20.40;99.90;;;;;;5125253;27;20027;-75
2021/06/19 05:10:43;;;;;;;15.80;6.00;;;20.40;99.90;;;;;;5135284;27;20105;-75
2021/06/19 05:13:09;;;;;;;13.20;5.97;;;20.40;99.90;;;;;;5135870;27;20030;-75
2021/06/19 05:15:35;;;;;;;17.08;7.43;;;20.40;99.90;;;;;;5135882;27;20031;-74
2021/06/19 05:18:01;;;;;;;16.52;5.90;;;20.80;99.90;;;;;;5135612;27;20027;-76
2021/06/19 05:20:28;;;;;;;13.75;7.32;;;20.90;99.90;;;;;;5135162;27;20031;-74
2021/06/19 05:22:55;;;;;;;12.75;5.80;;;20.80;99.90;;;;;;5135674;27;20542;-74
2021/06/19 05:25:22;;;;;;;16.20;6.10;;;20.80;99.90;;;;;;5122828;27;20505;-73
2021/06/19 05:27:47;;;;;;;13.95;5.75;;;21.00;99.90;;;;;;5111791;28;20424;-75
2021/06/19 05:30:14;;;;;;;11.93;5.72;;;21.20;99.90;;;;;;5113158;28;20020;-74
2021/06/19 05:32:40;;;;;;;14.13;5.50;;;21.50;99.90;;;;;;5115309;27;20069;-75
2021/06/19 05:35:06;;;;;;;18.45;5.97;;;21.70;99.90;;;;;;5114799;28;20031;-76
2021/06/19 05:37:32;;;;;;;11.30;6.28;;;22.00;99.90;;;;;;5116523;28;20458;-76
2021/06/19 05:39:57;;;;;;;19.13;6.55;;;22.00;99.90;;;;;;5117279;28;20031;-74
2021/06/19 05:42:23;;;;;;;10.13;5.47;;;22.00;99.90;;;;;;5118507;28;20043;-77
2021/06/19 05:44:49;;;;;;;10.25;4.93;;;22.00;99.90;;;;;;5119222;28;20342;-75
2021/06/19 05:47:15;;;;;;;13.35;5.82;;;22.10;99.90;;;;;;5115919;28;20081;-77
2021/06/19 05:49:41;;;;;;;13.00;5.93;;;22.10;99.90;;;;;;5113085;28;20073;-75
2021/06/19 05:52:07;;;;;;;12.32;5.95;;;22.20;99.90;;;;;;5114801;28;20015;-75
2021/06/19 05:54:36;;;;;;;13.27;5.60;;;22.30;99.90;;;;;;5135126;27;20481;-77
2021/06/19 05:57:06;;;;;;;15.05;6.15;;;22.40;99.90;;;;;;5116309;27;20088;-77
2021/06/19 05:59:31;;;;;;;11.30;5.80;;;22.50;99.90;;;;;;5134605;27;20025;-77
2021/06/19 06:01:57;;;;;;;10.40;5.72;;;22.50;99.90;;;;;;5115230;27;20023;-77
2021/06/19 06:04:23;;;;;;;15.15;6.22;;;22.30;99.90;;;;;;5133275;27;20031;-78
2021/06/19 06:06:48;;;;;;;8.93;5.45;;;22.30;99.90;;;;;;5135689;27;20023;-77
2021/06/19 06:09:14;;;;;;;13.05;5.40;;;22.40;99.90;;;;;;5122976;27;20024;-76
2021/06/19 06:11:40;;;;;;;11.63;5.78;;;22.50;99.90;;;;;;5117022;27;20477;-77
2021/06/19 06:14:08;;;;;;;16.60;6.60;;;22.40;99.90;;;;;;5127922;27;20648;-76
2021/06/19 06:16:34;;;;;;;12.07;5.95;;;22.40;99.90;;;;;;5120701;27;20508;-75
2021/06/19 06:19:00;;;;;;;14.23;5.65;;;22.40;99.90;;;;;;5115365;27;20034;-77
2021/06/19 06:21:26;;;;;;;17.33;6.25;;;22.50;99.90;;;;;;5119284;27;20016;-77
2021/06/19 06:23:52;;;;;;;15.02;6.10;;;22.70;99.90;;;;;;5132984;27;20114;-77
2021/06/19 06:26:17;;;;;;;26.63;6.53;;;22.90;99.90;;;;;;5134991;27;20389;-77
2021/06/19 06:28:43;;;;;;;16.30;6.50;;;23.10;99.90;;;;;;5134545;27;20103;-78
2021/06/19 06:31:09;;;;;;;12.95;6.47;;;23.30;99.90;;;;;;5131724;27;20157;-79
2021/06/19 06:33:34;;;;;;;14.98;6.43;;;23.40;99.90;;;;;;5113515;28;20016;-78
2021/06/19 06:36:00;;;;;;;13.88;5.70;;;23.40;99.90;;;;;;5129222;27;20030;-79
2021/06/19 06:38:26;;;;;;;15.10;6.15;;;23.60;99.90;;;;;;5118547;27;20031;-78
2021/06/19 06:40:51;;;;;;;11.60;5.55;;;23.90;99.90;;;;;;5126095;27;20023;-76
2021/06/19 06:43:17;;;;;;;16.02;5.70;;;24.20;99.90;;;;;;5115401;27;20068;-75
2021/06/19 06:45:43;;;;;;;16.15;5.90;;;24.30;99.90;;;;;;5121052;27;20023;-77
2021/06/19 06:48:09;;;;;;;15.85;5.13;;;24.70;99.90;;;;;;5123849;27;20028;-78
2021/06/19 06:50:35;;;;;;;17.42;5.65;;;24.80;99.90;;;;;;5116910;27;20088;-77
2021/06/19 06:53:01;;;;;;;16.50;4.93;;;24.80;99.90;;;;;;5115741;27;20050;-78
2021/06/19 06:55:27;;;;;;;14.25;5.28;;;24.70;99.90;;;;;;5116784;27;20496;-76
2021/06/19 06:57:52;;;;;;;14.43;5.20;;;24.50;99.90;;;;;;5134496;27;20542;-75
2021/06/19 07:00:19;;;;;;;17.88;5.03;;;24.40;99.90;;;;;;5133848;27;20138;-76
2021/06/19 07:02:44;;;;;;;13.23;5.43;;;24.70;99.90;;;;;;5134044;27;20019;-77
2021/06/19 07:05:11;;;;;;;11.48;4.57;;;24.90;99.90;;;;;;5133765;27;20068;-77
2021/06/19 07:07:37;;;;;;;12.45;5.07;;;25.00;99.90;;;;;;5133750;27;20020;-75
2021/06/19 07:10:05;;;;;;;20.42;5.72;;;25.10;99.90;;;;;;5115292;27;20026;-75
2021/06/19 07:12:31;;;;;;;13.77;4.82;;;25.00;99.90;;;;;;5134519;27;20102;-76
2021/06/19 07:14:56;;;;;;;20.73;5.93;;;25.20;99.90;;;;;;5120793;27;20055;-74
2021/06/19 07:17:22;;;;;;;16.35;5.72;;;25.20;99.90;;;;;;5113241;28;20024;-76
2021/06/19 07:19:48;;;;;;;12.43;5.05;;;25.40;99.90;;;;;;5119667;27;20611;-74
2021/06/19 07:22:13;;;;;;;18.35;6.28;;;25.50;99.90;;;;;;5133895;27;20034;-76
2021/06/19 07:24:39;;;;;;;14.60;5.40;;;25.50;99.90;;;;;;5137017;27;20016;-77
2021/06/19 07:27:06;;;;;;;20.02;6.00;;;25.50;99.90;;;;;;5136333;27;20019;-76
2021/06/19 07:29:32;;;;;;;15.63;6.07;;;25.50;99.90;;;;;;5139945;27;20019;-74
2021/06/19 07:31:58;;;;;;;18.77;5.55;;;25.50;99.90;;;;;;5145337;27;20022;-75
2021/06/19 07:34:24;;;;;;;15.27;5.38;;;25.80;99.90;;;;;;5138791;27;20031;-76
2021/06/19 07:36:49;;;;;;;15.07;5.35;;;25.70;99.90;;;;;;5136949;27;20061;-76
2021/06/19 07:39:15;;;;;;;17.90;6.07;;;25.70;99.90;;;;;;5133205;27;20361;-75
2021/06/19 07:41:41;;;;;;;18.45;5.50;;;25.60;99.90;;;;;;5135726;27;20019;-74
2021/06/19 07:44:08;;;;;;;15.70;5.40;;;25.50;99.90;;;;;;5138756;27;20027;-77
2021/06/19 07:46:34;;;;;;;17.42;4.35;;;25.60;99.90;;;;;;5135471;27;20054;-75
2021/06/19 07:49:02;;;;;;;19.48;5.57;;;25.90;99.90;;;;;;5137606;27;20043;-75
2021/06/19 07:51:28;;;;;;;19.48;5.25;;;26.30;99.90;;;;;;5137009;27;20020;-74
2021/06/19 07:53:54;;;;;;;14.93;4.65;;;26.60;99.90;;;;;;5138069;27;20019;-76
2021/06/19 07:56:20;;;;;;;15.13;4.80;;;26.60;99.90;;;;;;5135595;27;20019;-74
2021/06/19 07:58:45;;;;;;;20.50;5.60;;;26.90;99.90;;;;;;5132892;27;20087;-74
2021/06/19 08:01:11;;;;;;;11.57;4.40;;;27.20;99.90;;;;;;5113432;28;20098;-76
2021/06/19 08:03:37;;;;;;;14.02;4.82;;;27.40;99.90;;;;;;5116645;28;20081;-76
2021/06/19 08:06:03;;;;;;;16.55;5.15;;;27.60;99.90;;;;;;5116212;28;20043;-79
2021/06/19 08:08:29;;;;;;;24.13;5.90;;;27.90;99.90;;;;;;5115998;28;20079;-78
2021/06/19 08:10:54;;;;;;;22.65;5.15;;;27.60;99.90;;;;;;5117097;28;20066;-78
2021/06/19 08:13:20;;;;;;;16.33;4.65;;;27.70;99.90;;;;;;5120676;28;20028;-78
2021/06/19 08:15:46;;;;;;;15.27;4.43;;;27.50;99.90;;;;;;5120813;28;20020;-78
2021/06/19 08:18:12;;;;;;;14.95;4.53;;;27.60;99.90;;;;;;5140464;27;20047;-78
2021/06/19 08:20:38;;;;;;;15.60;5.07;;;28.00;99.90;;;;;;5125508;28;20086;-78
2021/06/19 08:23:04;;;;;;;11.52;4.47;;;28.10;99.90;;;;;;5115048;28;20038;-78
2021/06/19 08:25:30;;;;;;;20.77;5.10;;;28.20;99.90;;;;;;5114589;28;20073;-78
2021/06/19 08:27:56;;;;;;;18.02;4.85;;;28.70;99.90;;;;;;5114977;28;20016;-77
2021/06/19 08:30:22;;;;;;;17.55;5.00;;;29.20;99.90;;;;;;5131278;28;20590;-79
2021/06/19 08:32:48;;;;;;;22.83;6.00;;;29.50;99.90;;;;;;5139303;27;20023;-79
2021/06/19 08:35:14;;;;;;;25.17;5.65;;;29.60;99.40;;;;;;5141722;27;20023;-79
2021/06/19 08:37:40;;;;;;;20.23;5.15;;;29.90;99.00;;;;;;5122825;27;20035;-79
2021/06/19 08:40:07;;;;;;;16.15;4.15;;;30.20;98.10;;;;;;5145429;27;20058;-78
2021/06/19 08:42:34;;;;;;;12.90;4.25;;;30.30;97.00;;;;;;5151767;27;20493;-78
2021/06/19 08:45:00;;;;;;;18.58;5.28;;;30.10;96.00;;;;;;5136773;27;20077;-79
2021/06/19 08:47:34;;;;;;;15.52;4.55;;;29.90;96.20;;;;;;5132995;27;20433;-78
2021/06/19 08:50:04;;;;;;;20.63;5.00;;;30.00;96.40;;;;;;5123470;27;20024;-78
2021/06/19 08:52:30;;;;;;;15.93;4.82;;;30.30;95.80;;;;;;5119629;27;20088;-78
2021/06/19 08:54:56;;;;;;;17.25;4.85;;;30.20;96.00;;;;;;5130927;27;20090;-78
2021/06/19 08:57:21;;;;;;;15.90;4.15;;;30.30;96.30;;;;;;5119227;27;20084;-78
2021/06/19 08:59:50;;;;;;;23.55;5.40;;;30.80;95.90;;;;;;5134164;27;20083;-77
2021/06/19 09:02:16;;;;;;;19.23;4.47;;;31.00;95.00;;;;;;5127633;27;20019;-77
2021/06/19 09:04:57;;;;;;;12.95;4.28;;;30.80;94.60;;;;;;5137572;27;20035;-77
2021/06/19 09:07:44;;;;;;;14.85;4.72;;;31.00;95.40;;;;;;5127048;27;20023;-74
2021/06/19 09:10:21;;;;;;;13.30;4.05;;;30.70;94.60;;;;;;5094332;28;20022;-75
2021/06/19 09:13:09;;;;;;;11.70;4.28;;;30.60;94.80;;;;;;5128553;27;20104;-75
2021/06/19 09:15:45;;;;;;;19.02;4.85;;;31.40;94.30;;;;;;5135632;27;20034;-75
2021/06/19 09:18:18;;;;;;;13.10;4.20;;;31.90;94.20;;;;;;5135918;27;20027;-76
2021/06/19 09:20:50;;;;;;;10.95;4.45;;;32.00;94.50;;;;;;5122906;27;20546;-76
2021/06/19 09:23:18;;;;;;;14.10;4.22;;;31.80;94.50;;;;;;5124144;27;20073;-80
2021/06/19 09:25:44;;;;;;;15.45;4.57;;;31.80;94.90;;;;;;5127572;27;20027;-79
2021/06/19 09:28:10;;;;;;;9.73;4.68;;;31.60;94.70;;;;;;5123732;27;20019;-77
2021/06/19 09:30:38;;;;;;;16.80;4.45;;;31.70;95.10;;;;;;5123142;27;20073;-79
2021/06/19 09:33:07;;;;;;;10.20;3.70;;;32.30;94.90;;;;;;5133670;27;20019;-76
2021/06/19 09:35:40;;;;;;;22.00;4.43;;;32.70;93.50;;;;;;5126921;27;20361;-77
2021/06/19 09:38:12;;;;;;;16.00;4.68;;;32.30;92.90;;;;;;5125721;27;20068;-78
2021/06/19 09:40:41;;;;;;;8.25;4.25;;;32.50;93.60;;;;;;5116461;27;20717;-77
2021/06/19 09:43:11;;;;;;;13.65;4.00;;;32.90;92.20;;;;;;5133901;27;20393;-78
2021/06/19 09:45:37;;;;;;;10.10;3.72;;;33.70;92.10;;;;;;5129228;27;20515;-78
2021/06/19 09:48:05;;;;;;;16.13;3.90;;;34.00;90.20;;;;;;5122154;28;20015;-77
2021/06/19 09:50:31;;;;;;;16.35;4.28;;;34.00;89.80;;;;;;5118044;27;20026;-76
2021/06/19 09:53:11;;;;;;;7.40;3.50;;;34.30;87.90;;;;;;5133762;27;20034;-77
2021/06/19 09:55:37;;;;;;;16.20;4.10;;;34.50;88.70;;;;;;5123494;28;20035;-77
2021/06/19 09:58:02;;;;;;;11.98;3.75;;;34.20;85.00;;;;;;5128674;27;20031;-79
2021/06/19 10:00:38;;;;;;;12.32;4.45;;;33.50;88.30;;;;;;5129915;27;20019;-78
2021/06/19 10:03:04;;;;;;;11.45;3.90;;;33.50;88.30;;;;;;5122612;27;20023;-77
2021/06/19 10:05:30;;;;;;;15.57;4.40;;;33.50;90.20;;;;;;5136800;27;20038;-79
2021/06/19 10:07:55;;;;;;;7.85;3.80;;;33.70;89.10;;;;;;5130404;27;20019;-77
2021/06/19 10:10:21;;;;;;;16.25;4.65;;;33.40;89.10;;;;;;5113185;28;20047;-78
2021/06/19 10:12:48;;;;;;;11.50;4.25;;;32.80;90.50;;;;;;5131418;27;20041;-79
2021/06/19 10:15:15;;;;;;;13.13;4.50;;;33.10;90.20;;;;;;5127649;27;20058;-79
2021/06/19 10:17:45;;;;;;;10.70;4.53;;;33.20;89.00;;;;;;5118955;27;20436;-79
2021/06/19 10:20:13;;;;;;;11.90;4.70;;;33.40;88.30;;;;;;5125227;27;20042;-79
2021/06/19 10:22:41;;;;;;;17.33;4.63;;;33.30;90.90;;;;;;5113247;28;20068;-78
2021/06/19 10:25:10;;;;;;;12.57;4.28;;;33.70;90.00;;;;;;5131925;27;20011;-79
2021/06/19 10:27:38;;;;;;;14.00;4.88;;;34.10;87.30;;;;;;5127595;27;20031;-79
2021/06/19 10:30:06;;;;;;;16.13;4.63;;;33.70;85.40;;;;;;5121760;27;20443;-77
2021/06/19 10:32:40;;;;;;;15.55;4.82;;;33.60;85.90;;;;;;5131090;27;20019;-78
2021/06/19 10:35:07;;;;;;;10.38;5.18;;;33.10;86.00;;;;;;5109779;27;20015;-78
2021/06/19 10:37:32;;;;;;;21.13;4.95;;;32.80;89.80;;;;;;5123345;27;20011;-76
2021/06/19 10:40:24;;;;;;;14.70;4.78;;;32.80;88.30;;;;;;5115213;27;20481;-76
2021/06/19 10:42:55;;;;;;;14.68;4.68;;;32.80;90.10;;;;;;5135952;27;20031;-78
2021/06/19 10:45:29;;;;;;;15.75;4.97;;;32.80;87.20;;;;;;5134011;27;20026;-76
2021/06/19 10:48:05;;;;;;;17.15;5.10;;;32.70;87.50;;;;;;5133015;27;20033;-77
2021/06/19 10:50:31;;;;;;;11.95;4.35;;;32.80;89.00;;;;;;5134125;27;20377;-75
2021/06/19 10:53:26;;;;;;;13.10;4.47;;;33.10;86.50;;;;;;5137585;27;20058;-80
2021/06/19 10:55:54;;;;;;;16.13;4.85;;;33.30;85.50;;;;;;5115880;27;20039;-79
2021/06/19 10:58:21;;;;;;;15.30;5.22;;;33.20;86.30;;;;;;5137825;27;20041;-80
2021/06/19 11:00:57;;;;;;;13.38;4.50;;;33.50;87.30;;;;;;5117312;27;20016;-77
2021/06/19 11:03:44;;;;;;;15.13;4.25;;;34.00;88.00;;;;;;5134026;27;20023;-78
2021/06/19 11:06:20;;;;;;;13.35;4.13;;;34.30;81.10;;;;;;5139503;27;20034;-76
2021/06/19 11:09:01;;;;;;;14.20;4.13;;;34.40;82.60;;;;;;5136847;27;20045;-74
2021/06/19 11:11:45;;;;;;;21.95;4.97;;;34.50;79.10;;;;;;5134000;27;20016;-76
2021/06/19 11:14:11;;;;;;;10.02;3.83;;;34.50;77.40;;;;;;5138734;27;20031;-74
2021/06/19 11:16:36;;;;;;;19.58;4.38;;;34.60;78.80;;;;;;5134253;27;20393;-75
2021/06/19 11:19:02;;;;;;;13.45;3.80;;;34.70;78.60;;;;;;5136972;27;20362;-76
2021/06/19 11:21:32;;;;;;;15.13;4.47;;;34.20;78.00;;;;;;5133769;27;20056;-75
2021/06/19 11:24:00;;;;;;;17.55;4.45;;;33.80;76.70;;;;;;5134739;27;20051;-71
2021/06/19 11:27:00;;;;;;;23.33;4.97;;;34.10;80.20;;;;;;5134225;27;20019;-73
2021/06/19 11:29:38;;;;;;;19.88;5.03;;;34.50;74.70;;;;;;5113283;27;20114;-73
2021/06/19 11:32:27;;;;;;;19.10;4.68;;;34.60;76.60;;;;;;5113320;28;20103;-74
2021/06/19 11:34:58;;;;;;;15.07;3.70;;;34.90;73.70;;;;;;5112588;28;20115;-72
2021/06/19 11:37:44;;;;;;;13.32;5.22;;;35.10;73.20;;;;;;5120809;27;20019;-73
2021/06/19 11:40:10;;;;;;;17.38;4.07;;;35.20;72.00;;;;;;5120106;27;20793;-76
2021/06/19 11:42:45;;;;;;;16.02;4.30;;;35.10;71.60;;;;;;5123868;27;20046;-73
2021/06/19 11:45:14;;;;;;;16.48;4.57;;;34.80;72.40;;;;;;5121730;27;20051;-75
2021/06/19 11:47:40;;;;;;;10.48;4.30;;;34.70;75.30;;;;;;5111018;28;20058;-74
2021/06/19 11:50:09;;;;;;;14.48;4.57;;;34.90;75.70;;;;;;5123115;27;20051;-74
2021/06/19 11:52:35;;;;;;;20.33;5.10;;;35.00;74.40;;;;;;5120857;27;20050;-74
2021/06/19 11:55:01;;;;;;;18.17;4.72;;;35.10;74.60;;;;;;5124154;27;20015;-74
2021/06/19 11:57:30;;;;;;;12.57;4.20;;;35.10;77.20;;;;;;5123239;27;20023;-74
2021/06/19 12:00:11;;;;;;;12.93;4.70;;;35.50;72.50;;;;;;5123126;27;20111;-74
2021/06/19 12:02:37;;;;;;;16.27;4.90;;;35.70;73.10;;;;;;5123459;27;20032;-73
2021/06/19 12:05:16;;;;;;;21.88;4.80;;;35.60;73.90;;;;;;5124554;27;20037;-73
2021/06/19 12:07:46;;;;;;;17.05;4.93;;;35.80;73.00;;;;;;5122074;27;20226;-74
2021/06/19 12:10:27;;;;;;;16.45;4.68;;;36.10;74.40;;;;;;5122352;27;20012;-72
2021/06/19 12:13:04;;;;;;;20.60;5.28;;;36.20;72.90;;;;;;5122281;27;20100;-75
2021/06/19 12:15:31;;;;;;;14.57;4.90;;;36.10;71.50;;;;;;5119743;27;20469;-73
2021/06/19 12:17:58;;;;;;;20.85;4.43;;;36.60;74.20;;;;;;5121087;27;20028;-74
2021/06/19 12:20:24;;;;;;;17.13;4.82;;;36.00;73.30;;;;;;5122064;27;20047;-74
2021/06/19 12:22:51;;;;;;;12.95;4.07;;;35.70;72.60;;;;;;5123797;28;20020;-73
2021/06/19 12:25:30;;;;;;;12.23;4.72;;;35.70;72.90;;;;;;5121994;28;20026;-73
2021/06/19 12:27:55;;;;;;;12.50;4.30;;;36.10;72.30;;;;;;5121918;28;20023;-75
2021/06/19 12:30:21;;;;;;;11.38;4.38;;;36.40;71.00;;;;;;5120583;28;20381;-72
2021/06/19 12:32:49;;;;;;;17.58;4.43;;;36.60;70.90;;;;;;5123956;28;20030;-74
2021/06/19 12:35:17;;;;;;;16.50;4.40;;;36.00;71.40;;;;;;5121957;28;20019;-74
2021/06/19 12:37:54;;;;;;;13.57;4.68;;;36.20;70.10;;;;;;5109870;28;20028;-75
2021/06/19 12:40:24;;;;;;;18.05;4.78;;;36.70;70.90;;;;;;5119053;28;20016;-69
2021/06/19 12:42:53;;;;;;;15.85;4.95;;;36.50;68.60;;;;;;5111301;28;20031;-73
2021/06/19 12:45:24;;;;;;;11.27;4.28;;;36.30;70.60;;;;;;5122672;28;20102;-75
2021/06/19 12:47:52;;;;;;;19.17;5.13;;;36.50;70.70;;;;;;5120939;28;20028;-74